createdAt,value
2017-09-28T00:02:21.323Z,98.70
2017-09-28T00:04:49.595Z,98.90
2017-09-28T00:07:17.094Z,98.80
2017-09-28T00:09:44.605Z,98.90
2017-09-28T00:12:12.856Z,99.20
2017-09-28T00:14:40.373Z,99.20
2017-09-28T00:17:08.632Z,99.20
2017-09-28T00:19:36.894Z,99.20
2017-09-28T00:22:05.168Z,99.20
2017-09-28T00:24:32.660Z,99.20
2017-09-28T00:27:00.163Z,99.10
2017-09-28T00:29:27.664Z,99.10
2017-09-28T00:31:55.185Z,99.10
2017-09-28T00:34:22.673Z,99.10
2017-09-28T00:36:50.953Z,99.30
2017-09-28T00:39:18.439Z,99.20
2017-09-28T00:41:45.944Z,99.30
2017-09-28T00:44:13.435Z,99.40
2017-09-28T00:46:40.952Z,99.50
2017-09-28T00:49:08.452Z,99.40
2017-09-28T00:51:35.960Z,99.40
2017-09-28T00:54:07.026Z,99.40
2017-09-28T00:56:34.539Z,99.40
2017-09-28T00:59:02.025Z,99.30
2017-09-28T01:01:29.533Z,99.20
2017-09-28T01:03:57.786Z,99.20
2017-09-28T01:06:25.285Z,99.10
2017-09-28T01:08:52.774Z,99.20
2017-09-28T01:11:21.048Z,99.30
2017-09-28T01:13:50.296Z,99.20
2017-09-28T01:16:17.800Z,99.20
2017-09-28T01:18:45.284Z,99.30
2017-09-28T01:21:12.792Z,99.30
2017-09-28T01:23:40.272Z,99.40
2017-09-28T01:26:07.787Z,99.20
2017-09-28T01:28:35.272Z,99.30
2017-09-28T01:31:02.767Z,99.30
2017-09-28T01:33:30.271Z,99.00
2017-09-28T01:35:58.529Z,98.90
2017-09-28T01:38:26.797Z,99.00
2017-09-28T01:40:54.288Z,98.80
2017-09-28T01:43:21.805Z,99.00
2017-09-28T01:45:49.295Z,99.00
2017-09-28T01:48:16.800Z,99.00
2017-09-28T01:50:44.292Z,99.00
2017-09-28T01:53:12.567Z,99.30
2017-09-28T01:55:40.824Z,99.20
2017-09-28T01:58:09.105Z,99.40
2017-09-28T02:00:36.596Z,99.30
2017-09-28T02:03:04.104Z,99.50
2017-09-28T02:05:31.596Z,99.70
2017-09-28T02:07:59.168Z,99.70
2017-09-28T02:10:27.594Z,99.90
2017-09-28T02:12:55.120Z,99.80
2017-09-28T02:15:22.607Z,99.70
2017-09-28T02:17:50.880Z,99.70
2017-09-28T02:20:18.379Z,99.70
2017-09-28T02:22:45.896Z,99.90
2017-09-28T02:25:13.381Z,99.90
2017-09-28T02:27:41.676Z,99.90
2017-09-28T02:30:09.177Z,99.90
2017-09-28T02:32:36.696Z,99.90
2017-09-28T02:35:04.187Z,99.90
2017-09-28T02:37:32.469Z,99.90
2017-09-28T02:40:00.737Z,99.90
2017-09-28T02:42:28.228Z,99.90
2017-09-28T02:44:56.508Z,99.90
2017-09-28T02:47:24.002Z,99.90
2017-09-28T02:49:51.515Z,99.90
2017-09-28T02:52:19.004Z,99.90
2017-09-28T02:54:50.555Z,99.90
2017-09-28T02:57:18.824Z,99.60
2017-09-28T02:59:47.109Z,99.50
2017-09-28T03:02:14.592Z,99.50
2017-09-28T03:04:42.095Z,99.60
2017-09-28T03:07:09.592Z,99.60
2017-09-28T03:09:37.294Z,99.60
2017-09-28T03:12:04.792Z,99.80
2017-09-28T03:14:32.295Z,99.90
2017-09-28T03:16:59.800Z,99.90
2017-09-28T03:19:27.316Z,99.90
2017-09-28T03:21:54.799Z,99.70
2017-09-28T03:24:22.304Z,99.70
2017-09-28T03:26:49.824Z,99.80
2017-09-28T03:29:17.337Z,99.90
2017-09-28T03:31:45.736Z,99.80
2017-09-28T03:34:13.303Z,99.90
2017-09-28T03:36:41.551Z,99.90
2017-09-28T03:39:09.068Z,99.90
2017-09-28T03:41:36.566Z,99.90
2017-09-28T03:44:04.844Z,99.90
2017-09-28T03:46:32.344Z,99.80
2017-09-28T03:48:59.839Z,99.90
2017-09-28T03:51:27.345Z,99.90
2017-09-28T03:53:55.625Z,99.90
2017-09-28T03:56:23.139Z,99.90
2017-09-28T03:58:51.396Z,99.90
2017-09-28T04:01:18.915Z,99.90
2017-09-28T04:03:46.424Z,99.90
2017-09-28T04:06:13.935Z,99.90
2017-09-28T04:08:42.188Z,99.90
2017-09-28T04:11:10.469Z,99.90
2017-09-28T04:13:38.715Z,99.90
2017-09-28T04:16:07.002Z,99.90
2017-09-28T04:18:34.501Z,99.90
2017-09-28T04:21:02.008Z,99.90
2017-09-28T04:23:29.576Z,99.90
2017-09-28T04:25:57.088Z,99.90
2017-09-28T04:28:24.590Z,99.90
2017-09-28T04:30:52.863Z,99.90
2017-09-28T04:33:20.360Z,99.90
2017-09-28T04:35:47.867Z,99.90
2017-09-28T04:38:15.348Z,99.90
2017-09-28T04:40:42.852Z,99.90
2017-09-28T04:43:10.343Z,99.90
2017-09-28T04:45:37.829Z,99.90
2017-09-28T04:48:05.516Z,99.90
2017-09-28T04:50:33.016Z,99.90
2017-09-28T04:53:00.533Z,99.90
2017-09-28T04:55:28.792Z,99.90
2017-09-28T04:57:57.065Z,99.90
2017-09-28T05:00:25.316Z,99.90
2017-09-28T05:02:53.597Z,99.90
2017-09-28T05:05:22.064Z,99.90
2017-09-28T05:07:49.575Z,99.90
2017-09-28T05:10:17.056Z,99.90
2017-09-28T05:12:44.681Z,99.90
2017-09-28T05:15:12.163Z,99.90
2017-09-28T05:17:39.668Z,99.90
2017-09-28T05:20:07.920Z,99.90
2017-09-28T05:22:36.183Z,99.90
2017-09-28T05:25:06.461Z,99.80
2017-09-28T05:27:33.968Z,99.80
2017-09-28T05:30:01.460Z,99.90
2017-09-28T05:32:29.064Z,99.90
2017-09-28T05:34:56.564Z,99.90
2017-09-28T05:37:24.850Z,99.80
2017-09-28T05:39:52.376Z,99.80
2017-09-28T05:42:19.892Z,99.90
2017-09-28T05:44:47.377Z,99.70
2017-09-28T05:47:14.860Z,99.90
2017-09-28T05:49:42.364Z,99.90
2017-09-28T05:52:09.853Z,99.90
2017-09-28T05:54:37.368Z,99.90
2017-09-28T05:57:04.857Z,99.90
2017-09-28T05:59:33.133Z,99.90
2017-09-28T06:02:00.627Z,99.90
2017-09-28T06:04:28.140Z,99.90
2017-09-28T06:06:55.638Z,99.80
2017-09-28T06:09:23.143Z,99.90
2017-09-28T06:11:50.639Z,99.90
2017-09-28T06:14:18.921Z,99.80
2017-09-28T06:16:46.407Z,99.80
2017-09-28T06:19:13.908Z,99.90
2017-09-28T06:21:41.405Z,99.90
2017-09-28T06:24:17.281Z,99.90
2017-09-28T06:26:44.774Z,99.90
2017-09-28T06:29:15.308Z,99.90
2017-09-28T06:31:43.565Z,99.90
2017-09-28T06:34:11.069Z,99.90
2017-09-28T06:36:38.564Z,99.90
2017-09-28T06:39:06.161Z,99.90
2017-09-28T06:41:33.652Z,99.90
2017-09-28T06:44:01.257Z,99.90
2017-09-28T06:46:28.765Z,99.90
2017-09-28T06:48:57.621Z,99.60
2017-09-28T06:51:25.133Z,99.60
2017-09-28T06:53:52.624Z,99.60
2017-09-28T06:56:20.896Z,99.80
2017-09-28T06:58:48.381Z,99.80
2017-09-28T07:01:15.936Z,99.80
2017-09-28T07:03:43.416Z,99.70
2017-09-28T07:06:11.695Z,99.80
2017-09-28T07:08:39.237Z,99.80
2017-09-28T07:11:06.796Z,99.70
2017-09-28T07:13:34.288Z,99.60
2017-09-28T07:16:01.797Z,99.50
2017-09-28T07:18:29.381Z,99.40
2017-09-28T07:20:57.651Z,99.10
2017-09-28T07:23:25.908Z,99.50
2017-09-28T07:25:54.180Z,99.30
2017-09-28T07:28:21.671Z,99.30
2017-09-28T07:30:49.210Z,99.40
2017-09-28T07:33:16.702Z,99.70
2017-09-28T07:35:44.217Z,99.90
2017-09-28T07:38:11.703Z,99.90
2017-09-28T07:40:39.208Z,99.90
2017-09-28T07:43:06.701Z,99.90
2017-09-28T07:45:34.333Z,99.80
2017-09-28T07:48:01.870Z,99.90
2017-09-28T07:50:30.108Z,99.70
2017-09-28T07:52:58.389Z,99.50
2017-09-28T07:55:26.645Z,99.50
2017-09-28T07:57:54.160Z,99.80
2017-09-28T08:00:21.653Z,99.80
2017-09-28T08:02:49.164Z,99.70
2017-09-28T08:05:17.420Z,99.50
2017-09-28T08:07:45.696Z,99.40
2017-09-28T08:10:13.188Z,99.30
2017-09-28T08:12:51.164Z,99.50
2017-09-28T08:15:18.655Z,99.10
2017-09-28T08:17:46.928Z,98.70
2017-09-28T08:20:14.413Z,98.70
2017-09-28T08:22:41.951Z,98.30
2017-09-28T08:25:09.446Z,98.00
2017-09-28T08:27:38.712Z,97.50
2017-09-28T08:30:06.200Z,97.50
2017-09-28T08:32:38.011Z,97.60
2017-09-28T08:35:10.773Z,97.20
2017-09-28T08:37:39.048Z,97.10
2017-09-28T08:40:06.549Z,97.10
2017-09-28T08:42:34.048Z,97.20
2017-09-28T08:45:01.528Z,97.00
2017-09-28T08:47:29.036Z,97.00
2017-09-28T08:49:56.516Z,97.10
2017-09-28T08:52:24.025Z,97.40
2017-09-28T08:54:51.520Z,97.50
2017-09-28T08:57:19.006Z,97.70
2017-09-28T08:59:46.511Z,97.80
2017-09-28T09:02:14.759Z,98.10
2017-09-28T09:04:42.265Z,98.00
2017-09-28T09:07:09.743Z,98.00
2017-09-28T09:09:37.243Z,97.90
2017-09-28T09:12:04.735Z,97.90
2017-09-28T09:14:32.304Z,97.90
2017-09-28T09:16:59.791Z,97.70
2017-09-28T09:19:27.323Z,97.80
2017-09-28T09:21:54.800Z,97.80
2017-09-28T09:24:22.304Z,97.70
2017-09-28T09:26:49.793Z,97.60
2017-09-28T09:29:18.064Z,97.50
2017-09-28T09:31:46.321Z,97.10
2017-09-28T09:34:14.593Z,97.00
2017-09-28T09:36:42.848Z,97.10
2017-09-28T09:39:11.128Z,97.30
2017-09-28T09:41:38.616Z,97.30
2017-09-28T09:44:06.124Z,97.30
2017-09-28T09:46:33.609Z,97.50
2017-09-28T09:49:01.112Z,97.50
2017-09-28T09:51:28.592Z,97.30
2017-09-28T09:53:56.091Z,97.10
2017-09-28T09:56:23.579Z,96.90
2017-09-28T09:58:51.084Z,96.70
2017-09-28T10:01:18.574Z,96.80
2017-09-28T10:03:46.071Z,96.90
2017-09-28T10:06:13.563Z,96.90
2017-09-28T10:08:42.200Z,97.10
2017-09-28T10:11:15.407Z,97.10
2017-09-28T10:13:46.184Z,97.00
2017-09-28T10:16:16.856Z,96.80
2017-09-28T10:18:44.356Z,96.70
2017-09-28T10:21:11.860Z,96.60
2017-09-28T10:23:39.348Z,96.70
2017-09-28T10:26:06.855Z,96.50
2017-09-28T10:28:34.345Z,96.70
2017-09-28T10:31:01.852Z,96.50
2017-09-28T10:33:32.389Z,96.70
2017-09-28T10:36:05.076Z,96.10
2017-09-28T10:38:37.931Z,95.80
2017-09-28T10:41:05.443Z,95.60
2017-09-28T10:43:38.907Z,95.70
2017-09-28T10:46:06.413Z,95.30
2017-09-28T10:48:34.673Z,95.50
2017-09-28T10:51:02.185Z,95.50
2017-09-28T10:53:29.693Z,95.90
2017-09-28T10:55:57.208Z,95.70
2017-09-28T10:58:25.459Z,96.00
2017-09-28T11:00:53.727Z,95.90
2017-09-28T11:03:21.980Z,96.20
2017-09-28T11:05:50.249Z,95.60
2017-09-28T11:08:18.499Z,95.40
2017-09-28T11:10:46.831Z,95.10
2017-09-28T11:13:14.316Z,95.10
2017-09-28T11:15:42.604Z,94.70
2017-09-28T11:18:10.113Z,94.60
2017-09-28T11:20:38.396Z,94.30
2017-09-28T11:23:05.914Z,94.20
2017-09-28T11:25:34.176Z,94.60
2017-09-28T11:28:01.697Z,94.60
2017-09-28T11:30:29.179Z,94.90
2017-09-28T11:32:56.705Z,94.70
2017-09-28T11:35:24.233Z,94.70
2017-09-28T11:37:51.852Z,94.70
2017-09-28T11:40:19.344Z,94.60
2017-09-28T11:42:47.611Z,94.80
2017-09-28T11:45:15.118Z,94.50
2017-09-28T11:47:42.643Z,94.20
2017-09-28T11:50:10.168Z,94.00
2017-09-28T11:52:37.681Z,93.80
2017-09-28T11:55:05.189Z,93.60
2017-09-28T11:57:32.696Z,93.40
2017-09-28T12:00:00.186Z,93.40
2017-09-28T12:02:27.701Z,93.40
2017-09-28T12:04:55.215Z,93.80
2017-09-28T12:07:22.740Z,93.70
2017-09-28T12:09:50.228Z,94.10
2017-09-28T12:12:17.707Z,94.50
2017-09-28T12:14:45.980Z,94.30
2017-09-28T12:17:13.468Z,94.30
2017-09-28T12:19:40.987Z,94.20
2017-09-28T12:22:08.472Z,94.40
2017-09-28T12:24:35.974Z,94.60
2017-09-28T12:27:03.464Z,94.70
2017-09-28T12:29:30.971Z,94.20
2017-09-28T12:31:58.456Z,94.20
2017-09-28T12:34:25.967Z,93.10
2017-09-28T12:36:53.467Z,92.50
2017-09-28T12:39:20.981Z,92.70
2017-09-28T12:41:48.466Z,92.90
2017-09-28T12:44:16.015Z,93.30
2017-09-28T12:46:43.504Z,93.60
2017-09-28T12:49:11.016Z,93.40
2017-09-28T12:51:38.507Z,92.80
2017-09-28T12:54:06.775Z,93.00
2017-09-28T12:56:35.032Z,92.70
2017-09-28T12:59:02.556Z,92.70
2017-09-28T13:01:30.044Z,93.20
2017-09-28T13:03:57.552Z,93.20
2017-09-28T13:06:25.812Z,92.40
2017-09-28T13:08:54.080Z,92.30
2017-09-28T13:11:22.355Z,92.30
2017-09-28T13:13:49.838Z,92.30
2017-09-28T13:16:17.351Z,92.40
2017-09-28T13:18:45.613Z,92.60
2017-09-28T13:21:13.119Z,92.60
2017-09-28T13:23:41.367Z,92.70
2017-09-28T13:26:08.876Z,92.70
2017-09-28T13:28:36.383Z,93.00
2017-09-28T13:31:03.900Z,93.10
2017-09-28T13:33:32.222Z,92.70
2017-09-28T13:35:59.731Z,92.70
2017-09-28T13:38:27.226Z,92.90
2017-09-28T13:40:54.734Z,93.10
2017-09-28T13:43:22.229Z,93.20
2017-09-28T13:45:49.732Z,93.00
2017-09-28T13:48:17.231Z,92.90
2017-09-28T13:50:48.751Z,93.00
2017-09-28T13:53:16.235Z,92.90
2017-09-28T13:55:43.744Z,93.00
2017-09-28T13:58:12.004Z,93.30
2017-09-28T14:00:40.279Z,93.20
2017-09-28T14:03:08.532Z,93.60
2017-09-28T14:05:36.840Z,93.70
2017-09-28T14:08:04.334Z,93.60
2017-09-28T14:10:32.612Z,93.70
2017-09-28T14:13:00.094Z,93.70
2017-09-28T14:15:27.584Z,93.30
2017-09-28T14:17:55.868Z,92.30
2017-09-28T14:20:23.365Z,92.30
2017-09-28T14:22:50.876Z,91.90
2017-09-28T14:25:18.360Z,92.00
2017-09-28T14:27:46.760Z,91.90
2017-09-28T14:30:14.241Z,91.80
2017-09-28T14:32:41.744Z,92.00
2017-09-28T14:35:09.231Z,92.00
2017-09-28T14:37:36.740Z,92.30
2017-09-28T14:40:04.232Z,92.20
2017-09-28T14:42:31.796Z,92.10
2017-09-28T14:44:59.284Z,92.30
2017-09-28T14:47:26.792Z,92.70
2017-09-28T14:49:54.285Z,92.60
2017-09-28T14:52:21.804Z,92.90
2017-09-28T14:54:49.283Z,93.10
2017-09-28T14:57:16.803Z,93.20
2017-09-28T14:59:44.338Z,93.30
2017-09-28T15:02:11.856Z,93.30
2017-09-28T15:04:39.377Z,93.10
2017-09-28T15:07:06.971Z,93.10
2017-09-28T15:09:34.481Z,93.20
2017-09-28T15:12:02.011Z,93.20
2017-09-28T15:14:29.508Z,93.20
2017-09-28T15:16:57.000Z,93.40
2017-09-28T15:19:24.521Z,93.30
2017-09-28T15:21:53.064Z,93.20
2017-09-28T15:24:20.624Z,93.00
2017-09-28T15:26:48.921Z,93.00
2017-09-28T15:29:16.576Z,92.70
2017-09-28T15:31:44.072Z,92.90
2017-09-28T15:34:11.581Z,92.40
2017-09-28T15:36:39.076Z,92.60
2017-09-28T15:39:07.381Z,92.30
2017-09-28T15:41:34.884Z,92.20
2017-09-28T15:49:31.770Z,92.40
2017-09-28T15:55:45.793Z,92.70
2017-09-28T15:58:13.296Z,92.90
2017-09-28T16:00:41.741Z,93.10
2017-09-28T16:03:10.063Z,93.40
2017-09-28T16:05:37.601Z,93.40
2017-09-28T16:08:07.748Z,93.60
2017-09-28T16:10:36.044Z,93.80
2017-09-28T16:13:03.605Z,93.80
2017-09-28T16:15:31.107Z,93.80
2017-09-28T16:17:59.361Z,93.90
2017-09-28T16:20:27.632Z,94.10
2017-09-28T16:22:55.124Z,94.10
2017-09-28T16:25:22.632Z,94.20
2017-09-28T16:27:50.115Z,94.30
2017-09-28T16:30:17.617Z,94.40
2017-09-28T16:32:45.112Z,94.50
2017-09-28T16:35:12.617Z,94.40
2017-09-28T16:37:40.190Z,94.50
2017-09-28T16:40:09.510Z,95.00
2017-09-28T16:42:37.772Z,95.00
2017-09-28T16:45:06.047Z,95.50
2017-09-28T16:47:33.529Z,95.50
2017-09-28T16:50:01.124Z,95.90
2017-09-28T16:52:28.619Z,96.40
2017-09-28T16:54:56.124Z,96.70
2017-09-28T16:57:23.609Z,96.80
2017-09-28T16:59:51.116Z,97.00
2017-09-28T17:02:18.605Z,97.30
2017-09-28T17:04:46.132Z,97.40
2017-09-28T17:07:14.608Z,97.20
2017-09-28T17:09:42.091Z,97.20
2017-09-28T17:12:09.667Z,97.30
2017-09-28T17:14:37.151Z,97.40
2017-09-28T17:17:04.660Z,97.40
2017-09-28T17:19:32.197Z,97.90
2017-09-28T17:21:59.708Z,97.80
2017-09-28T17:24:27.187Z,98.00
2017-09-28T17:26:54.699Z,97.90
2017-09-28T17:29:22.185Z,97.70
2017-09-28T17:31:49.713Z,97.80
2017-09-28T17:34:17.203Z,97.80
2017-09-28T17:36:45.485Z,97.70
2017-09-28T17:39:12.997Z,97.60
2017-09-28T17:41:41.277Z,97.70
2017-09-28T17:44:09.528Z,97.70
2017-09-28T17:46:37.813Z,97.70
2017-09-28T17:49:05.312Z,97.70
2017-09-28T17:51:32.828Z,97.70
2017-09-28T17:54:00.313Z,97.80
2017-09-28T17:56:28.620Z,97.70
2017-09-28T17:58:56.116Z,97.70
2017-09-28T18:01:23.628Z,97.30
2017-09-28T18:03:54.429Z,96.70
2017-09-28T18:06:21.945Z,96.10
2017-09-28T18:08:49.436Z,95.80
2017-09-28T18:11:16.972Z,95.60
2017-09-28T18:13:46.467Z,95.40
2017-09-28T18:16:13.972Z,95.40
2017-09-28T18:18:41.490Z,95.40
2017-09-28T18:21:09.752Z,96.00
2017-09-28T18:23:38.023Z,96.30
2017-09-28T18:26:05.525Z,96.30
2017-09-28T18:28:33.037Z,96.60
2017-09-28T18:31:00.520Z,96.70
2017-09-28T18:33:28.036Z,96.90
2017-09-28T18:35:55.524Z,97.00
2017-09-28T18:38:23.036Z,97.20
2017-09-28T18:40:50.532Z,97.20
2017-09-28T18:43:18.047Z,97.30
2017-09-28T18:45:46.316Z,97.40
2017-09-28T18:48:13.832Z,97.30
2017-09-28T18:50:41.366Z,97.70
2017-09-28T18:53:08.877Z,97.50
2017-09-28T18:55:37.138Z,97.60
2017-09-28T18:58:04.648Z,97.60
2017-09-28T19:00:32.181Z,97.50
2017-09-28T19:03:00.472Z,97.50
2017-09-28T19:05:27.956Z,97.50
2017-09-28T19:07:55.481Z,97.40
2017-09-28T19:10:22.964Z,97.30
2017-09-28T19:12:51.248Z,97.10
2017-09-28T19:15:18.745Z,97.10
2017-09-28T19:17:46.233Z,97.10
2017-09-28T19:20:13.744Z,97.10
2017-09-28T19:22:41.240Z,97.10
2017-09-28T19:25:08.759Z,96.90
2017-09-28T19:27:36.248Z,96.90
2017-09-28T19:30:03.764Z,96.90
2017-09-28T19:32:31.256Z,96.80
2017-09-28T19:34:58.763Z,96.70
2017-09-28T19:37:26.252Z,96.70
2017-09-28T19:39:54.540Z,96.70
2017-09-28T19:42:22.030Z,96.70
2017-09-28T19:44:49.529Z,96.80
2017-09-28T19:47:17.022Z,96.80
2017-09-28T19:49:44.541Z,96.80
2017-09-28T19:52:12.028Z,96.60
2017-09-28T19:54:39.553Z,96.60
2017-09-28T19:57:07.040Z,96.40
2017-09-28T19:59:34.552Z,96.30
2017-09-28T20:02:02.811Z,96.40
2017-09-28T20:04:31.215Z,96.30
2017-09-28T20:06:58.703Z,96.20
2017-09-28T20:09:26.199Z,96.10
2017-09-28T20:11:53.688Z,96.10
2017-09-28T20:14:21.212Z,96.10
2017-09-28T20:16:48.697Z,96.10
2017-09-28T20:19:16.204Z,96.20
2017-09-28T20:21:43.717Z,96.30
2017-09-28T20:24:11.204Z,96.40
2017-09-28T20:26:38.713Z,96.50
2017-09-28T20:29:06.205Z,96.30
2017-09-28T20:31:34.491Z,96.10
2017-09-28T20:34:01.989Z,96.10
2017-09-28T20:36:29.505Z,96.40
2017-09-28T20:38:56.998Z,96.40
2017-09-28T20:41:25.267Z,96.50
2017-09-28T20:43:52.756Z,96.50
2017-09-28T20:46:20.256Z,96.30
2017-09-28T20:48:47.740Z,96.30
2017-09-28T20:51:15.289Z,96.60
2017-09-28T20:53:42.780Z,96.60
2017-09-28T20:56:13.985Z,96.60
2017-09-28T20:58:41.468Z,97.00
2017-09-28T21:01:08.988Z,97.30
2017-09-28T21:03:37.244Z,97.70
2017-09-28T21:06:05.515Z,97.50
2017-09-28T21:08:33.012Z,97.50
2017-09-28T21:11:00.524Z,97.60
2017-09-28T21:13:28.009Z,97.60
2017-09-28T21:16:10.656Z,97.80
2017-09-28T21:18:38.148Z,97.90
2017-09-28T21:21:05.657Z,98.00
2017-09-28T21:23:33.147Z,97.90
2017-09-28T21:26:01.466Z,98.00
2017-09-28T21:28:28.977Z,98.00
2017-09-28T21:30:56.460Z,98.00
2017-09-28T21:33:23.969Z,98.00
2017-09-28T21:35:51.468Z,97.90
2017-09-28T21:38:18.973Z,98.00
2017-09-28T21:40:46.460Z,98.20
2017-09-28T21:43:13.960Z,98.40
2017-09-28T21:45:41.445Z,98.50
2017-09-28T21:48:08.952Z,98.50
2017-09-28T21:50:36.444Z,98.60
2017-09-28T21:53:04.720Z,98.60
2017-09-28T21:55:32.215Z,98.60
2017-09-28T21:57:59.724Z,98.50
2017-09-28T22:00:27.214Z,98.60
2017-09-28T22:02:54.719Z,98.60
2017-09-28T22:05:22.218Z,98.60
2017-09-28T22:07:50.496Z,98.90
2017-09-28T22:10:17.979Z,98.80
2017-09-28T22:12:45.664Z,98.70
2017-09-28T22:15:13.160Z,98.90
2017-09-28T22:17:40.664Z,98.90
2017-09-28T22:20:08.153Z,98.70
2017-09-28T22:22:35.655Z,98.70
2017-09-28T22:25:03.148Z,99.00
2017-09-28T22:27:30.663Z,98.70
2017-09-28T22:29:58.915Z,98.90
2017-09-28T22:32:26.440Z,98.90
2017-09-28T22:34:53.943Z,98.90
2017-09-28T22:37:21.427Z,98.80
2017-09-28T22:39:48.932Z,98.70
2017-09-28T22:42:16.420Z,98.90
2017-09-28T22:44:43.927Z,99.10
2017-09-28T22:47:12.184Z,99.40
2017-09-28T22:49:39.692Z,99.30
2017-09-28T22:52:07.187Z,99.40
2017-09-28T22:54:34.692Z,99.30
2017-09-28T22:57:02.177Z,99.30
2017-09-28T22:59:29.688Z,99.40
2017-09-28T23:01:57.172Z,99.90
2017-09-28T23:04:24.681Z,99.50
2017-09-28T23:06:52.165Z,99.60
2017-09-28T23:09:19.672Z,99.50
2017-09-28T23:11:47.920Z,99.60
2017-09-28T23:14:15.433Z,99.50
2017-09-28T23:16:42.925Z,99.90
2017-09-28T23:19:11.204Z,99.90
2017-09-28T23:21:38.705Z,99.80
2017-09-28T23:24:06.212Z,99.90
2017-09-28T23:26:33.695Z,99.90
2017-09-28T23:29:01.231Z,99.90
2017-09-28T23:31:28.719Z,99.90
2017-09-28T23:33:56.216Z,99.90
2017-09-28T23:36:23.721Z,99.90
2017-09-28T23:38:51.208Z,99.90
2017-09-28T23:41:18.712Z,99.70
2017-09-28T23:43:46.974Z,99.80
2017-09-28T23:46:14.479Z,99.70
2017-09-28T23:48:41.963Z,99.90
2017-09-28T23:51:09.481Z,99.90
2017-09-28T23:53:36.967Z,99.90
2017-09-28T23:56:04.471Z,99.90
2017-09-28T23:58:31.961Z,99.90
